createdAt,value
2017-05-06T00:00:24.509Z,15.96
2017-05-06T00:01:34.547Z,15.95
2017-05-06T00:02:44.933Z,15.96
2017-05-06T00:03:54.967Z,15.95
2017-05-06T00:05:05.306Z,15.84
2017-05-06T00:06:15.337Z,15.96
2017-05-06T00:07:25.414Z,15.96
2017-05-06T00:08:35.450Z,15.92
2017-05-06T00:09:45.499Z,15.98
2017-05-06T00:10:55.841Z,15.93
2017-05-06T00:12:06.219Z,16.02
2017-05-06T00:13:16.570Z,15.95
2017-05-06T00:14:26.928Z,16.08
2017-05-06T00:15:36.970Z,16.14
2017-05-06T00:16:46.714Z,16.21
2017-05-06T00:17:57.060Z,16.26
2017-05-06T00:19:07.087Z,16.29
2017-05-06T00:20:17.442Z,16.36
2017-05-06T00:21:27.816Z,16.32
2017-05-06T00:22:38.208Z,16.37
2017-05-06T00:23:48.592Z,16.3
2017-05-06T00:24:58.956Z,16.37
2017-05-06T00:26:09.005Z,16.3
2017-05-06T00:27:19.374Z,16.32
2017-05-06T00:28:29.729Z,16.32
2017-05-06T00:29:39.468Z,16.29
2017-05-06T00:30:49.509Z,16.22
2017-05-06T00:31:59.853Z,16.25
2017-05-06T00:33:10.211Z,16.3
2017-05-06T00:34:20.603Z,16.26
2017-05-06T00:35:30.950Z,16.27
2017-05-06T00:36:41.031Z,16.22
2017-05-06T00:37:51.404Z,16.18
2017-05-06T00:39:01.777Z,16.17
2017-05-06T00:40:11.189Z,16.11
2017-05-06T00:41:20.911Z,16.17
2017-05-06T00:42:31.259Z,16.22
2017-05-06T00:43:41.634Z,16.1
2017-05-06T00:44:51.357Z,16.13
2017-05-06T00:46:01.717Z,15.98
2017-05-06T00:47:12.062Z,15.96
2017-05-06T00:48:22.418Z,16
2017-05-06T00:49:32.442Z,15.95
2017-05-06T00:50:42.775Z,16
2017-05-06T00:51:53.106Z,15.93
2017-05-06T00:53:03.458Z,15.86
2017-05-06T00:54:13.808Z,15.83
2017-05-06T00:55:24.167Z,15.8
2017-05-06T00:56:34.537Z,15.84
2017-05-06T00:57:44.903Z,15.81
2017-05-06T00:58:55.264Z,15.7
2017-05-06T01:00:05.291Z,15.81
2017-05-06T01:01:15.661Z,15.77
2017-05-06T01:02:26.016Z,15.75
2017-05-06T01:03:36.366Z,15.6
2017-05-06T01:04:46.709Z,15.67
2017-05-06T01:05:56.758Z,15.65
2017-05-06T01:07:06.795Z,15.65
2017-05-06T01:08:17.150Z,15.65
2017-05-06T01:09:26.565Z,15.62
2017-05-06T01:10:36.594Z,15.53
2017-05-06T01:11:46.950Z,15.53
2017-05-06T01:12:57.301Z,15.43
2017-05-06T01:14:07.652Z,15.53
2017-05-06T01:15:17.990Z,15.47
2017-05-06T01:16:28.356Z,15.52
2017-05-06T01:17:38.461Z,15.52
2017-05-06T01:18:48.830Z,15.41
2017-05-06T01:19:58.871Z,15.38
2017-05-06T01:21:09.216Z,15.52
2017-05-06T01:22:19.555Z,15.4
2017-05-06T01:23:29.587Z,15.45
2017-05-06T01:24:39.932Z,15.47
2017-05-06T01:25:50.294Z,15.45
2017-05-06T01:27:00.646Z,15.34
2017-05-06T01:28:10.987Z,15.37
2017-05-06T01:29:21.324Z,15.37
2017-05-06T01:30:31.364Z,15.3
2017-05-06T01:31:41.410Z,15.31
2017-05-06T01:32:51.443Z,15.18
2017-05-06T01:34:01.483Z,15.19
2017-05-06T01:35:11.526Z,15.27
2017-05-06T01:36:21.876Z,15.31
2017-05-06T01:37:32.230Z,15.3
2017-05-06T01:38:42.589Z,15.23
2017-05-06T01:39:52.946Z,15.27
2017-05-06T01:41:03.302Z,15.22
2017-05-06T01:42:13.658Z,15.22
2017-05-06T01:43:24.016Z,15.22
2017-05-06T01:44:34.377Z,15.27
2017-05-06T01:45:44.394Z,15.19
2017-05-06T01:46:54.432Z,15.16
2017-05-06T01:48:04.807Z,15.13
2017-05-06T01:49:15.163Z,15.18
2017-05-06T01:50:25.196Z,15.13
2017-05-06T01:51:35.535Z,15.19
2017-05-06T01:52:45.981Z,15.08
2017-05-06T01:53:56.335Z,15.13
2017-05-06T01:55:06.678Z,15.16
2017-05-06T01:56:16.706Z,15.15
2017-05-06T01:57:27.082Z,15.08
2017-05-06T01:58:37.437Z,15.08
2017-05-06T01:59:47.794Z,15.04
2017-05-06T02:00:58.152Z,15.04
2017-05-06T02:02:08.490Z,15.01
2017-05-06T02:03:18.847Z,15.01
2017-05-06T02:04:29.237Z,15.08
2017-05-06T02:05:39.592Z,14.97
2017-05-06T02:06:49.950Z,15.02
2017-05-06T02:08:00.001Z,14.98
2017-05-06T02:09:10.353Z,14.89
2017-05-06T02:10:20.728Z,14.9
2017-05-06T02:11:30.785Z,14.9
2017-05-06T02:12:41.142Z,14.86
2017-05-06T02:13:51.530Z,14.87
2017-05-06T02:15:01.878Z,14.9
2017-05-06T02:16:11.898Z,14.86
2017-05-06T02:17:21.931Z,14.93
2017-05-06T02:18:32.287Z,14.86
2017-05-06T02:19:42.625Z,14.86
2017-05-06T02:20:52.984Z,14.86
2017-05-06T02:22:03.330Z,14.75
2017-05-06T02:23:13.700Z,14.74
2017-05-06T02:24:24.047Z,14.82
2017-05-06T02:25:34.394Z,14.8
2017-05-06T02:26:44.734Z,14.79
2017-05-06T02:27:55.105Z,14.77
2017-05-06T02:29:05.448Z,14.71
2017-05-06T02:30:15.810Z,14.7
2017-05-06T02:31:25.217Z,14.67
2017-05-06T02:32:35.579Z,14.69
2017-05-06T02:33:45.987Z,14.69
2017-05-06T02:34:56.031Z,14.69
2017-05-06T02:36:06.108Z,14.64
2017-05-06T02:37:16.454Z,14.64
2017-05-06T02:38:26.492Z,14.69
2017-05-06T02:39:36.841Z,14.64
2017-05-06T02:40:47.194Z,14.7
2017-05-06T02:41:57.545Z,14.67
2017-05-06T02:43:07.891Z,14.61
2017-05-06T02:44:18.231Z,14.6
2017-05-06T02:45:28.580Z,14.63
2017-05-06T02:46:38.933Z,14.56
2017-05-06T02:47:48.982Z,14.59
2017-05-06T02:48:59.353Z,14.57
2017-05-06T02:50:09.699Z,14.49
2017-05-06T02:51:20.042Z,14.48
2017-05-06T02:52:30.100Z,14.49
2017-05-06T02:53:40.488Z,14.45
2017-05-06T02:54:50.849Z,14.45
2017-05-06T02:56:00.872Z,14.42
2017-05-06T02:57:10.921Z,14.46
2017-05-06T02:58:20.980Z,14.46
2017-05-06T02:59:31.026Z,14.48
2017-05-06T03:00:41.376Z,14.45
2017-05-06T03:01:51.410Z,14.44
2017-05-06T03:33:01.782Z,11.67
2017-05-06T03:34:12.112Z,11.78
2017-05-06T03:35:22.444Z,11.78
2017-05-06T03:36:32.789Z,11.76
2017-05-06T03:37:43.133Z,12
2017-05-06T03:38:53.475Z,12.11
2017-05-06T03:40:03.826Z,12.19
2017-05-06T03:41:14.199Z,12.43
2017-05-06T03:42:24.555Z,12.62
2017-05-06T03:43:34.599Z,12.81
2017-05-06T03:44:44.633Z,12.98
2017-05-06T03:45:54.981Z,13.14
2017-05-06T03:47:05.326Z,13.36
2017-05-06T03:48:15.363Z,13.62
2017-05-06T03:49:25.394Z,13.63
2017-05-06T03:50:35.746Z,13.86
2017-05-06T03:51:46.084Z,14.02
2017-05-06T03:52:56.130Z,14.15
2017-05-06T03:54:06.194Z,14.27
2017-05-06T03:55:16.548Z,14.41
2017-05-06T03:56:26.886Z,14.48
2017-05-06T03:57:37.243Z,14.6
2017-05-06T03:58:47.275Z,14.69
2017-05-06T03:59:57.311Z,14.82
2017-05-06T04:01:07.347Z,14.77
2017-05-06T04:02:17.698Z,14.87
2017-05-06T04:03:28.067Z,15.08
2017-05-06T04:04:38.408Z,15.1
2017-05-06T04:05:48.764Z,15.13
2017-05-06T04:06:59.102Z,15.23
2017-05-06T04:08:09.126Z,15.23
2017-05-06T04:09:19.486Z,15.3
2017-05-06T04:10:29.846Z,15.33
2017-05-06T04:11:40.207Z,15.34
2017-05-06T04:12:50.564Z,15.41
2017-05-06T04:14:00.587Z,15.43
2017-05-06T04:15:10.975Z,15.51
2017-05-06T04:16:21.362Z,15.49
2017-05-06T04:17:31.709Z,15.47
2017-05-06T04:18:42.064Z,15.43
2017-05-06T04:19:52.443Z,15.55
2017-05-06T04:21:02.167Z,15.62
2017-05-06T04:22:12.499Z,15.58
2017-05-06T04:23:22.867Z,15.56
2017-05-06T04:24:33.231Z,15.6
2017-05-06T04:25:43.569Z,15.63
2017-05-06T04:26:53.921Z,15.62
2017-05-06T04:28:04.282Z,15.59
2017-05-06T04:29:14.635Z,15.65
2017-05-06T04:30:24.990Z,15.62
2017-05-06T04:31:35.362Z,15.6
2017-05-06T04:32:45.418Z,15.62
2017-05-06T04:33:55.770Z,15.65
2017-05-06T04:35:05.846Z,15.68
2017-05-06T04:36:16.194Z,15.74
2017-05-06T04:37:26.540Z,15.8
2017-05-06T04:38:36.903Z,15.89
2017-05-06T04:39:47.252Z,15.98
2017-05-06T04:40:57.277Z,15.99
2017-05-06T04:42:07.642Z,15.95
2017-05-06T04:43:17.996Z,15.98
2017-05-06T04:44:27.397Z,16.06
2017-05-06T04:45:37.438Z,16.17
2017-05-06T04:46:47.484Z,16.25
2017-05-06T04:47:57.846Z,16.37
2017-05-06T04:49:08.194Z,16.39
2017-05-06T04:50:18.569Z,16.37
2017-05-06T04:51:29.188Z,16.57
2017-05-06T04:52:39.219Z,16.84
2017-05-06T04:53:49.246Z,17.1
2017-05-06T04:54:59.315Z,17.42
2017-05-06T04:56:09.661Z,18.11
2017-05-06T04:57:20.011Z,18.72
2017-05-06T04:58:30.355Z,19.25
2017-05-06T04:59:40.702Z,19.52
2017-05-06T05:00:51.045Z,19.78
2017-05-06T05:02:01.391Z,20.08
2017-05-06T05:03:11.122Z,20.4
2017-05-06T05:04:21.461Z,20.74
2017-05-06T05:05:31.175Z,20.85
2017-05-06T05:06:41.513Z,20.91
2017-05-06T05:07:51.580Z,21.04
2017-05-06T05:09:01.323Z,20.97
2017-05-06T05:10:11.669Z,20.79
2017-05-06T05:11:21.730Z,20.42
2017-05-06T05:12:31.777Z,20.35
2017-05-06T05:13:41.830Z,20.46
2017-05-06T05:14:52.190Z,20.58
2017-05-06T05:16:02.542Z,20.94
2017-05-06T05:17:12.884Z,21.23
2017-05-06T05:18:22.912Z,21.34
2017-05-06T05:19:33.273Z,21.34
2017-05-06T05:20:43.298Z,21.19
2017-05-06T05:21:53.326Z,21
2017-05-06T05:23:03.046Z,20.71
2017-05-06T05:24:13.383Z,20.63
2017-05-06T05:25:23.410Z,20.44
2017-05-06T05:26:33.767Z,20.34
2017-05-06T05:27:44.126Z,20.22
2017-05-06T05:28:54.176Z,20.07
2017-05-06T05:30:04.611Z,19.97
2017-05-06T05:31:14.979Z,19.79
2017-05-06T05:32:25.340Z,19.71
2017-05-06T05:33:35.686Z,19.67
2017-05-06T05:34:46.025Z,19.63
2017-05-06T05:35:56.384Z,19.52
2017-05-06T05:37:06.427Z,19.55
2017-05-06T05:38:16.785Z,19.55
2017-05-06T05:39:26.812Z,19.6
2017-05-06T05:40:37.158Z,19.53
2017-05-06T05:41:46.871Z,19.47
2017-05-06T05:42:57.214Z,19.42
2017-05-06T05:44:07.259Z,19.37
2017-05-06T05:45:17.612Z,19.34
2017-05-06T05:46:27.957Z,19.31
2017-05-06T05:47:38.325Z,19.27
2017-05-06T05:48:48.381Z,19.3
2017-05-06T05:49:58.723Z,19.24
2017-05-06T05:51:08.768Z,19.23
2017-05-06T05:52:19.106Z,19.19
2017-05-06T05:53:29.440Z,19.19
2017-05-06T05:54:39.799Z,19.2
2017-05-06T05:55:49.818Z,19.28
2017-05-06T05:57:00.191Z,19.31
2017-05-06T05:58:10.540Z,19.37
2017-05-06T05:59:20.564Z,19.5
2017-05-06T06:00:30.939Z,19.6
2017-05-06T06:01:41.301Z,19.8
2017-05-06T06:02:51.631Z,19.75
2017-05-06T06:04:01.964Z,19.93
2017-05-06T06:05:11.987Z,19.93
2017-05-06T06:06:22.335Z,19.95
2017-05-06T06:07:32.678Z,20.01
2017-05-06T06:08:43.031Z,19.93
2017-05-06T06:09:53.411Z,20.05
2017-05-06T06:11:03.789Z,20.01
2017-05-06T06:12:13.824Z,20.11
2017-05-06T06:13:24.163Z,20
2017-05-06T06:14:34.500Z,20.1
2017-05-06T06:15:44.839Z,20.2
2017-05-06T06:16:54.571Z,20.41
2017-05-06T06:18:04.928Z,20.4
2017-05-06T06:19:14.991Z,20.41
2017-05-06T06:20:25.364Z,20.58
2017-05-06T06:21:35.738Z,20.72
2017-05-06T06:22:45.756Z,20.75
2017-05-06T06:23:56.117Z,20.78
2017-05-06T06:25:06.485Z,20.88
2017-05-06T06:26:16.847Z,20.85
2017-05-06T06:27:27.198Z,20.97
2017-05-06T06:28:37.552Z,21.03
2017-05-06T06:29:47.897Z,21.16
2017-05-06T06:30:58.266Z,21.43
2017-05-06T06:32:08.629Z,21.62
2017-05-06T06:33:18.690Z,21.76
2017-05-06T06:34:29.098Z,21.89
2017-05-06T06:35:39.126Z,21.82
2017-05-06T06:36:49.422Z,21.78
2017-05-06T06:37:59.807Z,21.76
2017-05-06T06:39:10.171Z,21.68
2017-05-06T06:40:20.209Z,21.68
2017-05-06T06:41:30.557Z,21.64
2017-05-06T06:42:40.922Z,21.52
2017-05-06T06:43:51.279Z,21.45
2017-05-06T06:45:01.653Z,21.31
2017-05-06T06:46:12.025Z,21.16
2017-05-06T06:47:22.367Z,21.19
2017-05-06T06:48:32.425Z,21.12
2017-05-06T06:49:42.775Z,21.13
2017-05-06T06:50:53.136Z,21.18
2017-05-06T06:52:03.180Z,21.12
2017-05-06T06:53:13.533Z,21.08
2017-05-06T06:54:23.907Z,21.06
2017-05-06T06:55:33.952Z,21.19
2017-05-06T06:56:43.995Z,21.18
2017-05-06T06:57:54.034Z,21.13
2017-05-06T06:59:04.385Z,21.15
2017-05-06T07:00:14.725Z,21.23
2017-05-06T07:01:24.751Z,21.37
2017-05-06T07:02:35.115Z,21.3
2017-05-06T07:03:45.470Z,21.36
2017-05-06T07:04:55.818Z,21.36
2017-05-06T07:06:05.861Z,21.4
2017-05-06T07:07:16.215Z,21.4
2017-05-06T07:08:26.581Z,21.34
2017-05-06T07:09:36.929Z,21.37
2017-05-06T07:10:46.960Z,21.41
2017-05-06T07:11:56.693Z,21.52
2017-05-06T07:13:06.745Z,21.51
2017-05-06T07:14:17.101Z,21.61
2017-05-06T07:15:27.148Z,21.64
2017-05-06T07:16:37.502Z,21.71
2017-05-06T07:17:47.536Z,21.71
2017-05-06T07:18:57.934Z,21.83
2017-05-06T07:20:08.312Z,21.92
2017-05-06T07:21:18.398Z,21.99
2017-05-06T07:22:28.764Z,21.93
2017-05-06T07:23:39.112Z,22.07
2017-05-06T07:24:49.455Z,22.2
2017-05-06T07:25:59.505Z,22.2
2017-05-06T07:27:09.865Z,22.23
2017-05-06T07:28:20.223Z,22.23
2017-05-06T07:29:30.569Z,22.26
2017-05-06T07:30:40.939Z,22.33
2017-05-06T07:31:50.703Z,22.3
2017-05-06T07:33:01.058Z,22.34
2017-05-06T07:34:11.418Z,22.48
2017-05-06T07:35:21.132Z,22.45
2017-05-06T07:36:31.478Z,22.46
2017-05-06T07:37:41.518Z,22.54
2017-05-06T07:38:51.863Z,22.54
2017-05-06T07:40:01.613Z,22.51
2017-05-06T07:41:11.641Z,22.55
2017-05-06T07:42:21.993Z,22.48
2017-05-06T07:43:32.360Z,22.52
2017-05-06T07:44:42.726Z,22.54
2017-05-06T07:45:52.785Z,22.55
2017-05-06T07:47:03.171Z,22.59
2017-05-06T07:48:13.203Z,22.67
2017-05-06T07:49:23.228Z,22.71
2017-05-06T07:50:33.267Z,22.78
2017-05-06T07:51:43.620Z,22.73
2017-05-06T07:52:53.971Z,22.82
2017-05-06T07:54:03.695Z,22.79
2017-05-06T07:55:14.076Z,22.85
2017-05-06T07:56:24.444Z,22.91
2017-05-06T07:57:34.800Z,22.94
2017-05-06T07:58:44.851Z,23.01
2017-05-06T07:59:55.233Z,22.91
2017-05-06T08:01:05.590Z,23.09
2017-05-06T08:02:15.635Z,23.14
2017-05-06T08:03:25.994Z,23.18
2017-05-06T08:04:36.031Z,23.28
2017-05-06T08:05:46.383Z,23.35
2017-05-06T08:06:56.746Z,23.35
2017-05-06T08:08:06.798Z,23.44
2017-05-06T08:09:17.138Z,23.44
2017-05-06T08:10:27.179Z,23.34
2017-05-06T08:11:37.550Z,23.48
2017-05-06T08:12:47.618Z,23.53
2017-05-06T08:13:57.974Z,23.48
2017-05-06T08:15:08.042Z,23.64
2017-05-06T08:16:18.404Z,23.66
2017-05-06T08:17:28.124Z,23.53
2017-05-06T08:18:38.472Z,23.75
2017-05-06T08:19:48.531Z,23.7
2017-05-06T08:20:58.890Z,23.66
2017-05-06T08:22:09.247Z,23.78
2017-05-06T08:23:19.605Z,23.9
2017-05-06T08:24:29.969Z,24.02
2017-05-06T08:25:40.320Z,24.11
2017-05-06T08:26:50.670Z,24.17
2017-05-06T08:28:01.033Z,24.14
2017-05-06T08:29:11.305Z,24.09
2017-05-06T08:30:21.662Z,24.19
2017-05-06T08:31:32.016Z,24
2017-05-06T08:32:42.078Z,23.77
2017-05-06T08:33:52.135Z,23.72
2017-05-06T08:35:02.496Z,23.89
2017-05-06T08:36:12.851Z,24.02
2017-05-06T08:37:22.904Z,24.22
2017-05-06T08:38:33.273Z,24.37
2017-05-06T08:39:43.661Z,24.48
2017-05-06T08:40:53.714Z,24.66
2017-05-06T08:42:04.080Z,24.75
2017-05-06T08:43:14.461Z,24.94
2017-05-06T08:44:24.183Z,25.12
2017-05-06T08:45:34.522Z,25.41
2017-05-06T08:46:44.569Z,25.57
2017-05-06T08:47:54.603Z,25.88
2017-05-06T08:49:04.974Z,26.01
2017-05-06T08:50:15.324Z,26.06
2017-05-06T08:51:25.677Z,25.99
2017-05-06T08:52:36.046Z,25.88
2017-05-06T08:53:46.418Z,25.6
2017-05-06T08:54:56.456Z,25.44
2017-05-06T08:56:06.820Z,25.14
2017-05-06T08:57:17.186Z,25.07
2017-05-06T08:58:27.530Z,24.93
2017-05-06T08:59:37.622Z,24.75
2017-05-06T09:00:47.977Z,24.45
2017-05-06T09:01:58.330Z,24.32
2017-05-06T09:03:08.370Z,24.64
2017-05-06T09:04:18.732Z,24.83
2017-05-06T09:05:29.105Z,25.15
2017-05-06T09:06:39.459Z,25.22
2017-05-06T09:07:49.808Z,25.39
2017-05-06T09:09:00.164Z,25.63
2017-05-06T09:10:10.218Z,25.74
2017-05-06T09:11:20.573Z,25.75
2017-05-06T09:12:30.293Z,25.7
2017-05-06T09:13:40.343Z,25.57
2017-05-06T09:14:50.727Z,25.69
2017-05-06T09:16:01.105Z,25.57
2017-05-06T09:17:11.148Z,25.56
2017-05-06T09:18:20.878Z,25.49
2017-05-06T09:19:31.238Z,25.41
2017-05-06T09:20:41.292Z,25.42
2017-05-06T09:21:51.665Z,25.42
2017-05-06T09:23:01.706Z,25.48
2017-05-06T09:24:12.059Z,25.39
2017-05-06T09:25:22.413Z,25.42
2017-05-06T09:26:32.772Z,25.39
2017-05-06T09:27:42.804Z,25.47
2017-05-06T09:28:53.186Z,25.44
2017-05-06T09:30:03.554Z,25.33
2017-05-06T09:31:13.275Z,25.32
2017-05-06T09:32:23.653Z,25.3
2017-05-06T09:33:34.002Z,25.29
2017-05-06T09:34:44.054Z,25.23
2017-05-06T09:35:54.639Z,25.32
2017-05-06T09:37:04.670Z,25.34
2017-05-06T09:38:15.046Z,25.33
2017-05-06T09:39:25.085Z,25.3
2017-05-06T09:40:35.450Z,25.24
2017-05-06T09:41:45.493Z,25.19
2017-05-06T09:42:55.526Z,25.22
2017-05-06T09:44:05.564Z,25.2
2017-05-06T09:45:15.919Z,25.15
2017-05-06T09:46:26.268Z,25.12
2017-05-06T09:47:36.325Z,25.29
2017-05-06T09:48:46.669Z,25.38
2017-05-06T09:49:56.713Z,25.38
2017-05-06T09:51:06.758Z,25.47
2017-05-06T09:52:16.474Z,25.54
2017-05-06T09:53:26.832Z,25.67
2017-05-06T09:54:36.891Z,25.71
2017-05-06T09:55:46.635Z,25.69
2017-05-06T09:56:56.679Z,25.74
2017-05-06T09:58:07.038Z,25.71
2017-05-06T09:59:17.088Z,25.79
2017-05-06T10:00:27.145Z,25.84
2017-05-06T10:01:37.500Z,25.85
2017-05-06T10:02:47.547Z,25.91
2017-05-06T10:03:57.919Z,25.94
2017-05-06T10:05:08.270Z,25.91
2017-05-06T10:06:18.630Z,25.96
2017-05-06T10:07:28.691Z,25.96
2017-05-06T10:08:39.067Z,25.93
2017-05-06T10:09:49.445Z,25.94
2017-05-06T10:10:59.822Z,25.86
2017-05-06T10:12:10.192Z,25.89
2017-05-06T10:13:20.550Z,25.85
2017-05-06T10:14:30.918Z,25.91
2017-05-06T10:15:41.279Z,25.93
2017-05-06T10:16:51.639Z,26.01
2017-05-06T10:18:02.000Z,26.01
2017-05-06T10:19:11.741Z,25.97
2017-05-06T10:20:22.109Z,25.99
2017-05-06T10:21:32.483Z,26.09
2017-05-06T10:22:42.880Z,26.16
2017-05-06T10:23:52.610Z,26.27
2017-05-06T10:25:02.658Z,26.42
2017-05-06T10:26:12.723Z,26.26
2017-05-06T10:27:23.074Z,26.32
2017-05-06T10:28:33.440Z,26.42
2017-05-06T10:29:43.786Z,26.34
2017-05-06T10:30:54.155Z,26.27
2017-05-06T10:32:04.192Z,25.84
2017-05-06T10:33:14.243Z,26.06
2017-05-06T10:34:24.600Z,26.26
2017-05-06T10:35:34.963Z,26.32
2017-05-06T10:36:45.328Z,26.35
2017-05-06T10:37:55.693Z,26.44
2017-05-06T10:39:05.722Z,26.56
2017-05-06T10:40:16.077Z,26.64
2017-05-06T10:41:26.460Z,26.68
2017-05-06T10:42:36.549Z,26.79
2017-05-06T10:43:46.914Z,26.91
2017-05-06T10:44:57.262Z,26.86
2017-05-06T10:46:07.660Z,26.99
2017-05-06T10:47:18.041Z,26.93
2017-05-06T10:48:28.418Z,26.99
2017-05-06T10:49:38.783Z,27.11
2017-05-06T10:50:48.208Z,27.12
2017-05-06T10:51:58.566Z,27.28
2017-05-06T10:53:08.915Z,27.45
2017-05-06T10:54:18.953Z,27.45
2017-05-06T10:55:29.309Z,27.62
2017-05-06T10:56:39.654Z,27.52
2017-05-06T10:57:50.034Z,27.45
2017-05-06T10:59:00.403Z,27.52
2017-05-06T11:00:10.772Z,27.71
2017-05-06T11:01:20.825Z,27.8
2017-05-06T11:02:30.549Z,27.96
2017-05-06T11:03:40.908Z,27.84
2017-05-06T11:04:51.264Z,28.01
2017-05-06T11:06:01.618Z,27.57
2017-05-06T11:07:11.665Z,27.28
2017-05-06T11:08:21.739Z,27.37
2017-05-06T11:09:32.093Z,27.34
2017-05-06T11:10:42.454Z,27.42
2017-05-06T11:11:52.496Z,27.51
2017-05-06T11:13:02.862Z,27.49
2017-05-06T11:14:12.921Z,27.53
2017-05-06T11:15:23.268Z,27.55
2017-05-06T11:16:33.313Z,27.65
2017-05-06T11:17:43.671Z,27.55
2017-05-06T11:18:53.728Z,27.76
2017-05-06T11:20:04.093Z,27.89
2017-05-06T11:21:14.445Z,27.9
2017-05-06T11:22:24.809Z,27.98
2017-05-06T11:23:35.197Z,28.16
2017-05-06T11:24:45.565Z,28.24
2017-05-06T11:25:55.642Z,28.3
2017-05-06T11:27:05.995Z,28.27
2017-05-06T11:28:16.044Z,28.39
2017-05-06T11:29:26.410Z,28.65
2017-05-06T11:30:36.781Z,28.76
2017-05-06T11:31:46.868Z,29.11
2017-05-06T11:32:56.274Z,29.28
2017-05-06T11:34:05.998Z,29.32
2017-05-06T11:35:16.356Z,29.3
2017-05-06T11:36:26.439Z,29.42
2017-05-06T11:37:36.845Z,29.35
2017-05-06T11:38:46.884Z,29.33
2017-05-06T11:39:56.928Z,29.33
2017-05-06T11:41:06.981Z,29.38
2017-05-06T11:42:17.360Z,29.24
2017-05-06T11:43:27.721Z,28.86
2017-05-06T11:44:38.081Z,28.83
2017-05-06T11:45:48.466Z,28.86
2017-05-06T11:46:58.830Z,28.86
2017-05-06T11:48:09.181Z,28.49
2017-05-06T11:49:19.221Z,28.35
2017-05-06T11:50:29.595Z,28.17
2017-05-06T11:51:39.630Z,28.3
2017-05-06T11:52:49.982Z,28.33
2017-05-06T11:54:00.342Z,28.42
2017-05-06T11:55:10.705Z,28.51
2017-05-06T11:56:21.072Z,28.46
2017-05-06T11:57:31.503Z,28.49
2017-05-06T11:58:41.870Z,28.49
2017-05-06T11:59:51.912Z,28.54
2017-05-06T12:01:02.290Z,28.6
2017-05-06T12:02:12.641Z,28.65
2017-05-06T12:03:23.002Z,28.73
2017-05-06T12:04:33.355Z,28.86
2017-05-06T12:05:43.758Z,28.85
2017-05-06T12:06:54.111Z,28.92
2017-05-06T12:08:04.484Z,28.9
2017-05-06T12:09:14.842Z,28.67
2017-05-06T12:10:24.256Z,28.72
2017-05-06T12:11:34.627Z,28.95
2017-05-06T12:12:45.011Z,29.03
2017-05-06T12:13:55.364Z,29.06
2017-05-06T12:15:05.714Z,28.95
2017-05-06T12:16:16.070Z,28.82
2017-05-06T12:17:26.114Z,28.88
2017-05-06T12:18:36.167Z,28.63
2017-05-06T12:19:46.565Z,28.63
2017-05-06T12:20:56.917Z,28.61
2017-05-06T12:22:06.951Z,28.73
2017-05-06T12:23:17.298Z,28.85
2017-05-06T12:24:27.683Z,28.94
2017-05-06T12:25:38.056Z,29.05
2017-05-06T12:26:48.434Z,29.14
2017-05-06T12:27:58.784Z,29.1
2017-05-06T12:29:08.839Z,29.03
2017-05-06T12:30:19.200Z,28.82
2017-05-06T12:31:29.566Z,28.86
2017-05-06T12:32:39.936Z,28.86
2017-05-06T12:33:50.293Z,28.86
2017-05-06T12:35:00.650Z,28.83
2017-05-06T12:36:11.028Z,28.7
2017-05-06T12:37:21.388Z,28.54
2017-05-06T12:38:31.745Z,28.49
2017-05-06T12:39:42.110Z,28.57
2017-05-06T12:40:52.143Z,28.53
2017-05-06T12:42:02.510Z,28.49
2017-05-06T12:43:12.567Z,28.38
2017-05-06T12:44:22.912Z,28.27
2017-05-06T12:45:32.970Z,28.28
2017-05-06T12:46:43.017Z,28.26
2017-05-06T12:47:53.100Z,28.2
2017-05-06T12:49:03.460Z,28.3
2017-05-06T12:50:13.193Z,28.26
2017-05-06T12:51:23.537Z,28.21
2017-05-06T12:52:33.279Z,28.28
2017-05-06T12:53:43.643Z,28.27
2017-05-06T12:54:54.004Z,27.94
2017-05-06T12:56:04.050Z,27.74
2017-05-06T12:57:14.425Z,27.8
2017-05-06T12:58:24.495Z,27.81
2017-05-06T12:59:34.860Z,27.94
2017-05-06T13:00:44.902Z,28.08
2017-05-06T13:01:55.260Z,28.16
2017-05-06T13:03:05.648Z,28.23
2017-05-06T13:04:16.018Z,28.3
2017-05-06T13:05:25.749Z,28.23
2017-05-06T13:06:36.106Z,28.31
2017-05-06T13:07:46.468Z,28.57
2017-05-06T13:08:56.819Z,28.73
2017-05-06T13:10:07.190Z,28.85
2017-05-06T13:11:17.548Z,28.82
2017-05-06T13:12:27.599Z,28.91
2017-05-06T13:13:37.647Z,29.05
2017-05-06T13:14:47.991Z,29.03
2017-05-06T13:15:58.360Z,29.21
2017-05-06T13:17:08.721Z,29.08
2017-05-06T13:18:19.099Z,29.13
2017-05-06T13:19:29.173Z,28.65
2017-05-06T13:20:39.526Z,28.24
2017-05-06T13:21:49.585Z,28.3
2017-05-06T13:22:59.961Z,28.33
2017-05-06T13:24:10.351Z,28.68
2017-05-06T13:25:20.734Z,28.79
2017-05-06T13:26:30.807Z,28.65
2017-05-06T13:27:41.193Z,28.58
2017-05-06T13:28:51.258Z,28.16
2017-05-06T13:30:01.606Z,28.02
2017-05-06T13:31:11.959Z,27.69
2017-05-06T13:32:22.342Z,27.57
2017-05-06T13:33:32.691Z,27.37
2017-05-06T13:34:42.741Z,27.72
2017-05-06T13:35:53.142Z,28.08
2017-05-06T13:37:03.500Z,27.99
2017-05-06T13:38:13.537Z,27.61
2017-05-06T13:39:23.945Z,27.53
2017-05-06T13:40:34.311Z,27.38
2017-05-06T13:41:44.662Z,27.49
2017-05-06T13:42:55.006Z,27.69
2017-05-06T13:44:05.056Z,27.86
2017-05-06T13:45:15.413Z,27.94
2017-05-06T13:46:25.781Z,28.03
2017-05-06T13:47:36.151Z,27.98
2017-05-06T13:48:46.514Z,27.86
2017-05-06T13:49:56.883Z,28.02
2017-05-06T13:51:06.961Z,28.21
2017-05-06T13:52:17.326Z,28.21
2017-05-06T13:53:27.666Z,28.33
2017-05-06T13:54:37.737Z,28.45
2017-05-06T13:55:48.134Z,28.6
2017-05-06T13:56:58.487Z,28.68
2017-05-06T13:58:08.523Z,28.65
2017-05-06T13:59:18.567Z,28.65
2017-05-06T14:00:28.903Z,28.67
2017-05-06T14:01:38.957Z,28.65
2017-05-06T14:02:49.319Z,28.64
2017-05-06T14:03:59.672Z,28.73
2017-05-06T14:05:09.708Z,28.76
2017-05-06T14:06:20.074Z,28.64
2017-05-06T14:07:30.430Z,28.67
2017-05-06T14:08:40.491Z,28.41
2017-05-06T14:09:50.867Z,28.42
2017-05-06T14:11:01.222Z,28.36
2017-05-06T14:12:11.258Z,28.26
2017-05-06T14:13:21.616Z,28.28
2017-05-06T14:14:31.979Z,28.21
2017-05-06T14:15:42.334Z,28.26
2017-05-06T14:16:52.700Z,28.16
2017-05-06T14:18:03.052Z,28.28
2017-05-06T14:19:13.114Z,28.26
2017-05-06T14:20:23.473Z,28.16
2017-05-06T14:21:33.519Z,28.16
2017-05-06T14:22:43.602Z,28.23
2017-05-06T14:23:53.961Z,28.17
2017-05-06T14:25:04.336Z,28.24
2017-05-06T14:26:14.692Z,28.17
2017-05-06T14:27:25.057Z,28.18
2017-05-06T14:28:35.459Z,28.16
2017-05-06T14:29:45.534Z,28.23
2017-05-06T14:30:55.898Z,28.18
2017-05-06T14:32:06.277Z,28.08
2017-05-06T14:33:16.664Z,28.09
2017-05-06T14:34:26.765Z,27.91
2017-05-06T14:35:36.488Z,27.9
2017-05-06T14:36:46.534Z,28.02
2017-05-06T14:37:56.585Z,28.05
2017-05-06T14:39:06.932Z,28.08
2017-05-06T14:40:17.285Z,28.11
2017-05-06T14:41:27.637Z,28.2
2017-05-06T14:42:38.010Z,28.16
2017-05-06T14:43:48.376Z,28.09
2017-05-06T14:44:58.421Z,27.98
2017-05-06T14:46:08.783Z,27.99
2017-05-06T14:47:19.122Z,27.93
2017-05-06T14:48:29.483Z,27.98
2017-05-06T14:49:39.852Z,27.91
2017-05-06T14:50:49.890Z,27.98
2017-05-06T14:52:00.270Z,27.84
2017-05-06T14:53:10.633Z,27.91
2017-05-06T14:54:20.685Z,27.86
2017-05-06T14:55:30.415Z,27.8
2017-05-06T14:56:40.151Z,27.76
2017-05-06T14:57:50.209Z,27.68
2017-05-06T14:59:00.561Z,27.74
2017-05-06T15:00:10.928Z,27.61
2017-05-06T15:01:21.295Z,27.64
2017-05-06T15:02:31.656Z,27.61
2017-05-06T15:03:41.723Z,27.64
2017-05-06T15:04:51.451Z,27.61
2017-05-06T15:06:01.483Z,27.59
2017-05-06T15:07:11.845Z,27.52
2017-05-06T15:08:21.898Z,27.48
2017-05-06T15:09:32.271Z,27.38
2017-05-06T15:10:42.638Z,27.41
2017-05-06T15:11:52.985Z,27.51
2017-05-06T15:13:03.027Z,27.37
2017-05-06T15:14:13.385Z,27.51
2017-05-06T15:15:23.746Z,27.55
2017-05-06T15:16:34.149Z,27.55
2017-05-06T15:17:44.506Z,27.36
2017-05-06T15:18:54.576Z,27.42
2017-05-06T15:20:04.640Z,27.46
2017-05-06T15:21:15.011Z,27.34
2017-05-06T15:22:25.091Z,27.38
2017-05-06T15:23:35.148Z,27.33
2017-05-06T15:24:45.208Z,27.28
2017-05-06T15:25:55.573Z,27.36
2017-05-06T15:27:05.629Z,27.28
2017-05-06T15:28:15.994Z,27.31
2017-05-06T15:29:26.350Z,27.21
2017-05-06T15:30:36.689Z,27.21
2017-05-06T15:31:46.754Z,27.24
2017-05-06T15:32:56.510Z,27.09
2017-05-06T15:34:06.899Z,27.06
2017-05-06T15:35:17.307Z,27.08
2017-05-06T15:36:27.373Z,27.05
2017-05-06T15:37:37.753Z,27.08